Time;durP1;ratioP1;P1;durP2;ratioP2;P2;SDS_P1;SDS_P2;PMS_P1;PMS_P2;Temp;Humidity;BMP_temperature;BMP_pressure;BME280_temperature;BME280_humidity;BME280_pressure;Samples;Min_cycle;Max_cycle;Signal;HPM_P1;HPM_P2
2022/12/18 00:04:23;;;;;;;22.37;12.10;;;15.10;52.20;;;;;;10447838;28;21077;-27
2022/12/18 00:09:25;;;;;;;24.83;12.63;;;15.00;52.30;;;;;;10449813;28;20138;-29
2022/12/18 00:14:26;;;;;;;31.13;16.23;;;15.00;52.20;;;;;;10441722;28;20124;-28
2022/12/18 00:19:30;;;;;;;31.50;16.53;;;15.00;52.10;;;;;;10452817;28;20082;-28
2022/12/18 00:24:32;;;;;;;30.13;16.10;;;15.00;52.20;;;;;;10458342;28;20060;-25
2022/12/18 00:29:34;;;;;;;31.25;16.40;;;14.90;52.10;;;;;;10441491;28;20064;-27
2022/12/18 00:34:37;;;;;;;20.33;10.57;;;15.00;52.10;;;;;;10449771;28;20056;-30
2022/12/18 00:39:39;;;;;;;22.27;11.90;;;15.00;52.10;;;;;;10444637;28;20765;-28
2022/12/18 00:44:41;;;;;;;24.67;13.13;;;14.90;52.20;;;;;;10448970;28;20069;-28
2022/12/18 00:49:44;;;;;;;25.37;13.43;;;14.90;52.20;;;;;;10438015;28;20059;-27
2022/12/18 00:54:46;;;;;;;26.45;14.10;;;14.90;52.20;;;;;;10454232;28;20056;-29
2022/12/18 00:59:48;;;;;;;28.37;15.27;;;14.80;52.20;;;;;;10443324;28;20045;-27
2022/12/18 01:04:52;;;;;;;31.95;16.13;;;14.90;52.10;;;;;;10453384;28;20130;-26
2022/12/18 01:09:54;;;;;;;31.23;16.88;;;14.80;52.20;;;;;;10437398;28;20524;-28
2022/12/18 01:14:56;;;;;;;27.17;14.37;;;14.80;52.20;;;;;;10449519;28;20130;-27
2022/12/18 01:19:59;;;;;;;22.63;13.10;;;14.80;52.10;;;;;;10445624;28;20122;-28
2022/12/18 01:25:01;;;;;;;28.88;14.65;;;14.80;52.00;;;;;;10448701;28;20069;-27
2022/12/18 01:30:03;;;;;;;27.77;13.87;;;14.70;52.10;;;;;;10455689;28;20135;-26
2022/12/18 01:35:08;;;;;;;26.83;13.95;;;14.70;52.00;;;;;;10444826;28;20053;-26
2022/12/18 01:40:10;;;;;;;28.30;13.40;;;14.70;52.00;;;;;;10443144;28;20045;-28
2022/12/18 01:45:31;;;;;;;26.30;13.60;;;14.70;52.00;;;;;;10439970;28;20065;-26
2022/12/18 01:50:38;;;;;;;26.63;13.75;;;14.70;52.00;;;;;;10446567;28;20401;-26
2022/12/18 01:55:43;;;;;;;30.83;13.75;;;14.70;51.90;;;;;;10445094;28;20534;-28
2022/12/18 02:00:46;;;;;;;24.88;12.40;;;14.70;52.10;;;;;;10456230;28;20569;-27
2022/12/18 02:05:56;;;;;;;30.90;15.30;;;14.70;52.00;;;;;;10443674;28;20567;-27
2022/12/18 02:11:05;;;;;;;26.20;13.60;;;14.70;52.00;;;;;;10435550;28;20098;-27
2022/12/18 02:16:16;;;;;;;26.58;13.75;;;14.70;52.00;;;;;;10435227;28;20052;-27
2022/12/18 02:21:28;;;;;;;22.52;11.57;;;14.60;51.90;;;;;;10444752;28;20093;-30
2022/12/18 02:26:35;;;;;;;24.92;12.27;;;14.60;51.90;;;;;;10435154;28;20095;-26
2022/12/18 02:31:43;;;;;;;29.45;10.90;;;14.60;51.90;;;;;;10445987;28;20135;-27
2022/12/18 02:36:46;;;;;;;25.40;12.05;;;14.60;52.00;;;;;;10441490;28;20100;-29
2022/12/18 02:41:50;;;;;;;21.85;11.60;;;14.60;51.90;;;;;;10454361;28;20676;-26
2022/12/18 02:46:53;;;;;;;28.95;12.73;;;14.60;51.80;;;;;;10444865;28;20049;-26
2022/12/18 02:52:02;;;;;;;28.50;13.88;;;14.60;51.70;;;;;;10441249;28;20045;-28
2022/12/18 02:57:14;;;;;;;23.05;10.85;;;14.50;51.70;;;;;;10438806;28;20088;-27
2022/12/18 03:02:22;;;;;;;27.75;12.65;;;14.50;51.70;;;;;;10442390;28;20049;-27
2022/12/18 03:07:34;;;;;;;21.10;10.70;;;14.50;51.80;;;;;;10439396;28;20135;-27
2022/12/18 03:12:42;;;;;;;24.75;12.38;;;14.50;51.70;;;;;;10445819;28;20075;-27
2022/12/18 03:17:51;;;;;;;22.92;11.77;;;14.50;52.20;;;;;;10430078;28;20382;-27
2022/12/18 03:22:58;;;;;;;21.95;11.07;;;14.50;51.60;;;;;;10441438;28;20130;-27
2022/12/18 03:28:04;;;;;;;25.05;13.02;;;14.50;51.60;;;;;;10458411;28;20041;-28
2022/12/18 03:33:11;;;;;;;22.98;11.13;;;14.50;51.60;;;;;;10450411;28;20103;-29
2022/12/18 03:38:13;;;;;;;22.00;10.82;;;14.40;51.60;;;;;;10450432;28;20048;-27
2022/12/18 03:43:21;;;;;;;22.27;11.18;;;14.40;51.50;;;;;;10441839;28;20086;-26
2022/12/18 03:48:30;;;;;;;22.92;11.82;;;14.40;51.60;;;;;;10445824;28;20406;-28
2022/12/18 03:53:38;;;;;;;21.35;10.43;;;14.40;51.60;;;;;;10454327;28;20076;-26
2022/12/18 03:58:43;;;;;;;24.80;11.80;;;14.40;51.50;;;;;;10445297;28;20053;-26
2022/12/18 04:03:50;;;;;;;21.13;10.70;;;14.40;51.50;;;;;;10444273;28;20756;-27
2022/12/18 04:08:52;;;;;;;19.15;10.48;;;14.30;51.50;;;;;;10440960;28;20045;-26
2022/12/18 04:13:58;;;;;;;20.07;10.70;;;14.30;51.50;;;;;;10447783;28;20136;-26
2022/12/18 04:19:00;;;;;;;20.17;10.30;;;14.30;51.40;;;;;;10441513;28;20089;-26
2022/12/18 04:24:02;;;;;;;19.60;9.87;;;14.30;51.40;;;;;;10446962;28;20040;-31
2022/12/18 04:29:05;;;;;;;20.95;10.45;;;14.30;51.40;;;;;;10442718;28;20103;-28
2022/12/18 04:34:07;;;;;;;21.45;10.32;;;14.30;51.40;;;;;;10451153;28;20433;-26
2022/12/18 04:39:09;;;;;;;20.90;10.30;;;14.30;51.30;;;;;;10464493;28;20490;-28
2022/12/18 04:44:12;;;;;;;18.57;9.80;;;14.20;51.30;;;;;;10456337;28;20045;-27
2022/12/18 04:49:14;;;;;;;16.80;9.38;;;14.30;51.30;;;;;;10477163;28;20475;-32
2022/12/18 04:54:16;;;;;;;19.87;9.13;;;14.20;51.30;;;;;;10450476;28;20044;-31
2022/12/18 04:59:19;;;;;;;17.40;9.40;;;14.20;51.20;;;;;;10432797;28;20072;-27
2022/12/18 05:04:21;;;;;;;23.92;9.88;;;14.20;51.10;;;;;;10450944;28;20048;-27
2022/12/18 05:09:24;;;;;;;19.17;9.23;;;14.20;51.10;;;;;;10439425;28;20509;-27
2022/12/18 05:14:29;;;;;;;;;;;14.20;51.10;;;;;;10452375;28;20136;-27
2022/12/18 05:19:31;;;;;;;16.92;8.38;;;14.20;50.90;;;;;;10452170;28;19980;-28
2022/12/18 05:24:33;;;;;;;16.10;8.10;;;14.30;50.90;;;;;;10451914;28;20049;-26
2022/12/18 05:29:36;;;;;;;15.40;7.22;;;14.40;50.80;;;;;;10429672;28;20474;-26
2022/12/18 05:34:38;;;;;;;13.70;8.10;;;14.50;50.60;;;;;;10438303;28;20063;-26
2022/12/18 05:39:40;;;;;;;13.80;7.70;;;14.50;50.40;;;;;;10443644;28;20098;-33
2022/12/18 05:44:44;;;;;;;15.77;6.93;;;14.60;50.60;;;;;;10452227;28;20500;-29
2022/12/18 05:49:46;;;;;;;13.68;7.55;;;14.60;50.50;;;;;;10445423;28;20071;-30
2022/12/18 05:54:48;;;;;;;16.27;8.50;;;14.60;50.60;;;;;;10443509;28;20137;-31
2022/12/18 05:59:51;;;;;;;10.77;6.67;;;14.60;50.60;;;;;;10441247;28;20049;-29
2022/12/18 06:04:53;;;;;;;11.45;6.38;;;14.60;50.50;;;;;;10444615;28;20056;-29
2022/12/18 06:09:54;;;;;;;13.67;6.83;;;14.70;50.50;;;;;;10436192;28;20044;-29
2022/12/18 06:14:58;;;;;;;12.07;7.00;;;14.70;50.60;;;;;;10449402;28;20110;-28
2022/12/18 06:19:59;;;;;;;12.30;6.60;;;14.60;50.60;;;;;;10454808;28;20069;-29
2022/12/18 06:25:01;;;;;;;14.18;7.40;;;14.70;50.60;;;;;;10446904;28;20068;-27
2022/12/18 06:30:06;;;;;;;11.23;6.23;;;14.70;50.60;;;;;;10444017;28;20524;-30
2022/12/18 06:35:08;;;;;;;12.23;6.43;;;14.70;50.50;;;;;;10433660;28;20090;-27
2022/12/18 06:40:10;;;;;;;;;;;14.70;50.60;;;;;;10421105;28;20596;-26
2022/12/18 06:45:14;;;;;;;12.02;6.72;;;14.70;51.10;;;;;;10427868;28;19925;-29
2022/12/18 06:50:16;;;;;;;9.60;5.90;;;14.80;50.50;;;;;;10427817;28;20474;-29
2022/12/18 06:55:18;;;;;;;10.90;6.13;;;14.80;50.50;;;;;;10425533;28;20056;-28
2022/12/18 07:00:22;;;;;;;10.13;6.28;;;14.70;50.50;;;;;;10427821;28;20143;-26
2022/12/18 07:15:29;;;;;;;11.88;6.30;;;14.60;50.20;;;;;;10475349;27;20114;-27
2022/12/18 07:20:31;;;;;;;10.68;5.68;;;14.60;50.50;;;;;;10476527;28;20078;-28
2022/12/18 07:25:34;;;;;;;10.07;5.65;;;14.60;50.60;;;;;;10482701;28;20162;-26
2022/12/18 07:30:39;;;;;;;10.60;6.07;;;14.60;50.60;;;;;;10466944;28;20044;-27
2022/12/18 07:35:41;;;;;;;11.65;6.18;;;14.60;50.60;;;;;;10477137;28;20092;-26
2022/12/18 07:40:43;;;;;;;8.93;5.67;;;14.50;50.70;;;;;;10482051;28;20041;-27
2022/12/18 07:45:46;;;;;;;10.50;5.90;;;14.60;50.60;;;;;;10481056;28;20053;-26
2022/12/18 07:50:48;;;;;;;9.55;5.13;;;14.50;50.60;;;;;;10474730;28;20127;-25
2022/12/18 07:55:55;;;;;;;17.13;6.28;;;14.60;50.50;;;;;;10471072;28;20048;-29
2022/12/18 08:01:05;;;;;;;8.00;4.95;;;14.50;51.10;;;;;;10472064;28;20171;-26
2022/12/18 08:06:09;;;;;;;10.75;5.35;;;14.50;50.60;;;;;;10479427;28;20133;-24
2022/12/18 08:11:11;;;;;;;8.85;5.10;;;14.50;50.60;;;;;;10476343;28;20144;-27
2022/12/18 08:16:14;;;;;;;8.83;5.20;;;14.50;50.60;;;;;;10474954;28;20045;-27
2022/12/18 08:21:20;;;;;;;8.30;5.22;;;14.50;50.70;;;;;;10475942;28;20075;-27
2022/12/18 08:26:23;;;;;;;9.77;4.50;;;14.40;50.70;;;;;;10452852;28;20066;-27
2022/12/18 08:31:27;;;;;;;;;;;14.40;51.00;;;;;;10448800;28;20163;-25
2022/12/18 08:36:29;;;;;;;8.30;4.65;;;14.40;51.10;;;;;;10450945;28;20122;-28
2022/12/18 08:41:30;;;;;;;13.47;6.40;;;14.40;51.10;;;;;;10448091;28;20144;-27
2022/12/18 08:46:37;;;;;;;8.85;5.10;;;14.40;51.30;;;;;;10448029;28;20045;-31
2022/12/18 08:51:39;;;;;;;11.25;5.10;;;14.40;51.20;;;;;;10447015;28;20062;-26
2022/12/18 08:56:42;;;;;;;8.90;4.90;;;14.50;51.20;;;;;;10439528;28;20057;-27
2022/12/18 09:01:47;;;;;;;7.72;4.68;;;14.50;51.20;;;;;;10447121;28;20389;-26
2022/12/18 09:06:53;;;;;;;9.27;4.28;;;14.50;51.20;;;;;;10451846;28;20049;-28
2022/12/18 09:11:55;;;;;;;6.40;3.97;;;14.40;51.40;;;;;;10446944;28;20122;-28
2022/12/18 09:16:58;;;;;;;11.75;5.72;;;14.50;51.20;;;;;;10446927;28;20087;-27
2022/12/18 09:22:00;;;;;;;8.57;5.35;;;14.40;51.40;;;;;;10445016;28;20048;-26
2022/12/18 09:27:02;;;;;;;6.68;3.92;;;14.50;51.40;;;;;;10446253;28;20083;-30
2022/12/18 09:32:05;;;;;;;5.63;3.70;;;14.50;51.30;;;;;;10442721;28;20160;-26
2022/12/18 09:37:07;;;;;;;5.60;3.35;;;14.50;51.20;;;;;;10444687;28;20493;-26
2022/12/18 09:42:15;;;;;;;6.57;3.92;;;14.50;51.30;;;;;;10445624;28;20045;-27
2022/12/18 09:47:23;;;;;;;5.75;3.95;;;14.50;51.20;;;;;;10442362;28;20045;-27
2022/12/18 09:52:31;;;;;;;7.57;3.42;;;14.60;51.40;;;;;;10442648;28;20060;-27
2022/12/18 09:57:37;;;;;;;5.78;3.38;;;14.60;51.40;;;;;;10448818;28;20127;-26
2022/12/18 10:02:40;;;;;;;5.78;3.75;;;14.50;51.40;;;;;;10448612;28;20049;-26
2022/12/18 10:07:57;;;;;;;4.60;3.40;;;14.40;51.60;;;;;;10446451;28;20071;-27
2022/12/18 10:13:10;;;;;;;6.20;3.25;;;14.40;51.70;;;;;;10441431;28;20150;-28
2022/12/18 10:18:40;;;;;;;5.07;3.20;;;14.30;51.80;;;;;;10442591;28;20064;-25
2022/12/18 10:23:52;;;;;;;5.00;3.35;;;14.40;51.90;;;;;;10440383;28;20051;-26
2022/12/18 10:28:56;;;;;;;5.00;3.00;;;14.40;52.00;;;;;;10442091;28;20814;-25
2022/12/18 10:33:59;;;;;;;10.23;6.50;;;14.40;52.10;;;;;;10446422;28;20053;-27
2022/12/18 10:39:16;;;;;;;15.13;8.30;;;14.50;52.10;;;;;;10445089;28;20079;-26
2022/12/18 10:44:20;;;;;;;14.27;7.65;;;14.40;52.00;;;;;;10438342;28;20063;-27
2022/12/18 10:49:27;;;;;;;12.95;7.93;;;14.40;52.00;;;;;;10453656;28;20047;-26
2022/12/18 10:54:31;;;;;;;19.15;9.85;;;14.40;52.00;;;;;;10442522;28;20052;-28
2022/12/18 10:59:51;;;;;;;14.52;8.40;;;14.50;52.00;;;;;;10440264;28;20140;-28
2022/12/18 11:04:54;;;;;;;13.45;8.85;;;14.40;51.90;;;;;;10440204;28;20495;-30
2022/12/18 11:10:02;;;;;;;18.23;9.23;;;14.40;51.90;;;;;;10443584;28;20052;-28
2022/12/18 11:15:06;;;;;;;18.35;7.85;;;14.50;52.40;;;;;;10443472;28;20063;-32
2022/12/18 11:20:30;;;;;;;14.38;8.55;;;14.40;52.00;;;;;;10444220;28;20122;-30
2022/12/18 11:25:34;;;;;;;16.63;6.97;;;14.50;52.00;;;;;;10438965;28;20051;-29
2022/12/18 11:30:37;;;;;;;15.10;8.13;;;14.50;52.20;;;;;;10443315;28;20460;-27
2022/12/18 11:35:46;;;;;;;15.70;7.82;;;14.50;52.20;;;;;;10441208;28;20147;-29
2022/12/18 11:40:54;;;;;;;12.70;7.55;;;14.40;52.20;;;;;;10442876;28;20114;-28
2022/12/18 11:46:00;;;;;;;12.13;7.10;;;14.50;52.00;;;;;;10441877;28;20143;-28
2022/12/18 11:51:10;;;;;;;11.02;6.60;;;14.40;52.10;;;;;;10444655;28;20049;-26
2022/12/18 11:56:30;;;;;;;8.27;4.70;;;14.40;52.00;;;;;;10437959;28;20051;-28
2022/12/18 12:01:44;;;;;;;10.05;6.35;;;14.50;51.90;;;;;;10448158;28;20095;-26
2022/12/18 12:06:56;;;;;;;8.45;5.03;;;14.50;51.80;;;;;;10436813;28;20091;-27
2022/12/18 12:12:10;;;;;;;8.20;4.97;;;14.50;52.00;;;;;;10440500;28;20103;-26
2022/12/18 12:17:21;;;;;;;8.25;4.85;;;14.50;51.90;;;;;;10446732;28;20171;-26
2022/12/18 12:22:30;;;;;;;5.13;3.45;;;14.50;51.90;;;;;;10438054;28;20524;-28
2022/12/18 12:27:46;;;;;;;5.43;3.35;;;14.50;51.90;;;;;;10443461;28;20430;-25
2022/12/18 12:33:17;;;;;;;4.32;2.70;;;14.60;51.90;;;;;;10448153;28;20041;-27
2022/12/18 12:38:24;;;;;;;4.50;2.55;;;14.60;52.00;;;;;;10445970;28;20045;-26
2022/12/18 12:43:33;;;;;;;4.50;2.75;;;14.60;51.90;;;;;;10434033;28;20138;-29
2022/12/18 12:48:47;;;;;;;4.32;2.92;;;14.60;51.90;;;;;;10463652;28;20068;-27
2022/12/18 12:53:51;;;;;;;9.13;3.38;;;14.60;52.00;;;;;;10451242;28;20064;-27
2022/12/18 12:59:02;;;;;;;5.13;2.90;;;14.70;51.90;;;;;;10444456;28;20049;-24
2022/12/18 13:04:16;;;;;;;5.72;2.95;;;14.60;51.90;;;;;;10445208;28;20148;-27
2022/12/18 13:09:19;;;;;;;4.25;3.15;;;14.60;52.10;;;;;;10445610;28;20048;-30
2022/12/18 13:14:27;;;;;;;8.43;2.80;;;14.70;52.00;;;;;;10441672;28;20073;-29
2022/12/18 13:19:31;;;;;;;3.95;2.50;;;14.70;52.00;;;;;;10444071;28;20053;-30
2022/12/18 13:24:34;;;;;;;7.90;4.82;;;14.70;52.10;;;;;;10448973;28;20033;-29
2022/12/18 13:29:44;;;;;;;3.47;2.55;;;14.70;51.90;;;;;;10452041;28;20049;-29
2022/12/18 13:34:46;;;;;;;6.43;3.33;;;14.70;52.10;;;;;;10454893;28;20165;-31
2022/12/18 13:39:49;;;;;;;4.87;3.00;;;14.70;52.20;;;;;;10434667;28;20080;-29
2022/12/18 13:44:51;;;;;;;7.18;4.10;;;14.70;52.10;;;;;;10438304;28;20049;-30
2022/12/18 13:49:53;;;;;;;8.70;3.30;;;14.70;52.10;;;;;;10436306;28;20402;-28
2022/12/18 13:55:00;;;;;;;6.05;3.15;;;14.70;52.00;;;;;;10439067;28;20049;-27
2022/12/18 14:00:24;;;;;;;6.70;3.38;;;14.70;52.00;;;;;;10445746;28;20049;-27
2022/12/18 14:05:27;;;;;;;7.00;4.10;;;14.70;52.00;;;;;;10441090;28;20067;-32
2022/12/18 14:10:31;;;;;;;6.13;3.28;;;14.70;51.90;;;;;;10436716;28;20437;-29
2022/12/18 14:15:35;;;;;;;9.60;4.20;;;14.80;52.60;;;;;;10439884;28;20563;-27
2022/12/18 14:20:40;;;;;;;5.90;2.92;;;14.70;52.10;;;;;;10438230;28;20492;-27
2022/12/18 14:25:47;;;;;;;5.93;3.28;;;14.70;52.20;;;;;;10447663;28;20091;-27
2022/12/18 14:30:50;;;;;;;4.22;3.00;;;14.70;52.10;;;;;;10444470;28;20067;-27
2022/12/18 14:35:58;;;;;;;5.13;2.75;;;14.70;52.10;;;;;;10440008;28;20090;-27
2022/12/18 14:41:03;;;;;;;3.85;2.67;;;14.70;52.10;;;;;;10435450;28;20103;-29
2022/12/18 14:46:06;;;;;;;5.32;2.70;;;14.70;52.10;;;;;;10440373;28;20429;-29
2022/12/18 14:51:21;;;;;;;6.13;2.92;;;14.80;52.20;;;;;;10442952;28;20078;-27
2022/12/18 14:56:27;;;;;;;4.45;2.83;;;14.80;52.10;;;;;;10443039;28;20541;-25
2022/12/18 15:01:32;;;;;;;4.40;2.53;;;14.70;51.90;;;;;;10444447;28;20051;-26
2022/12/18 15:06:36;;;;;;;3.35;2.05;;;14.80;52.10;;;;;;10443444;28;20052;-27
2022/12/18 15:11:50;;;;;;;6.68;2.80;;;14.80;52.10;;;;;;10449761;28;20152;-28
2022/12/18 15:16:54;;;;;;;3.65;2.60;;;14.80;52.00;;;;;;10447899;28;20055;-30
2022/12/18 15:21:56;;;;;;;4.38;2.53;;;14.80;52.10;;;;;;10434487;28;20122;-28
2022/12/18 15:26:59;;;;;;;7.57;3.13;;;14.90;52.10;;;;;;10441660;28;20437;-26
2022/12/18 15:32:03;;;;;;;4.47;3.00;;;14.80;52.00;;;;;;10443153;28;20080;-27
2022/12/18 15:37:05;;;;;;;4.95;3.00;;;14.80;52.10;;;;;;10448354;28;20470;-29
2022/12/18 15:47:29;;;;;;;8.05;4.90;;;14.90;52.20;;;;;;10456472;28;20490;-25
2022/12/18 15:52:36;;;;;;;7.23;4.70;;;14.90;52.20;;;;;;10450696;28;20052;-29
2022/12/18 15:57:39;;;;;;;9.20;4.88;;;14.90;52.10;;;;;;10448396;28;20076;-30
2022/12/18 16:02:41;;;;;;;13.90;6.90;;;14.90;52.20;;;;;;10446527;28;20136;-28
2022/12/18 16:07:43;;;;;;;8.30;4.53;;;14.90;52.10;;;;;;10453486;28;20140;-25
2022/12/18 16:12:47;;;;;;;12.70;6.10;;;14.90;52.10;;;;;;10444573;28;20167;-25
2022/12/18 16:17:49;;;;;;;6.50;3.45;;;14.90;52.10;;;;;;10448644;28;20149;-29
2022/12/18 16:22:51;;;;;;;9.10;5.17;;;14.90;52.20;;;;;;10454021;28;20076;-30
2022/12/18 16:27:56;;;;;;;8.88;5.22;;;14.90;52.20;;;;;;10454010;28;20045;-29
2022/12/18 16:32:58;;;;;;;9.50;5.03;;;14.90;52.10;;;;;;10456752;28;20052;-28
2022/12/18 16:38:00;;;;;;;12.57;5.45;;;14.90;52.10;;;;;;10452491;28;20045;-29
2022/12/18 16:43:03;;;;;;;5.63;3.38;;;14.90;52.10;;;;;;10444589;28;20076;-29
2022/12/18 16:48:05;;;;;;;8.95;5.15;;;14.90;52.10;;;;;;10442538;28;20548;-30
2022/12/18 16:53:07;;;;;;;11.40;5.73;;;14.90;52.20;;;;;;10448138;28;20056;-26
2022/12/18 16:58:11;;;;;;;8.48;4.70;;;14.80;52.20;;;;;;10444723;28;21071;-27
2022/12/18 17:03:16;;;;;;;15.23;8.82;;;14.70;52.10;;;;;;10452449;28;20067;-26
2022/12/18 17:08:18;;;;;;;16.27;7.97;;;14.60;52.20;;;;;;10449465;28;20081;-25
2022/12/18 17:13:39;;;;;;;16.37;8.70;;;14.60;52.30;;;;;;10449273;28;20470;-26
2022/12/18 17:18:41;;;;;;;14.63;7.13;;;14.50;52.30;;;;;;10445929;28;20458;-26
2022/12/18 17:23:44;;;;;;;15.73;8.45;;;14.50;52.40;;;;;;10450909;28;20115;-26
2022/12/18 17:28:47;;;;;;;17.25;8.57;;;14.50;52.20;;;;;;10442024;28;20099;-28
2022/12/18 17:33:50;;;;;;;15.23;8.13;;;14.40;52.30;;;;;;10446735;28;20080;-27
2022/12/18 17:38:52;;;;;;;6.82;4.13;;;14.50;52.30;;;;;;10451803;28;20049;-27
2022/12/18 17:43:57;;;;;;;10.23;4.25;;;14.60;52.20;;;;;;10446510;28;20069;-27
2022/12/18 17:49:01;;;;;;;8.02;4.10;;;14.60;52.00;;;;;;10440202;28;20040;-27
2022/12/18 17:54:04;;;;;;;7.28;5.10;;;14.50;52.20;;;;;;10448342;28;20044;-28
2022/12/18 17:59:07;;;;;;;;;;;14.50;52.40;;;;;;10442965;28;20060;-28
2022/12/18 18:04:09;;;;;;;9.77;5.70;;;14.50;52.40;;;;;;10445176;28;19929;-30
2022/12/18 18:09:11;;;;;;;11.80;6.75;;;14.30;53.00;;;;;;10451726;28;20073;-32
2022/12/18 18:14:17;;;;;;;10.43;5.17;;;14.30;52.70;;;;;;10444717;28;20092;-29
2022/12/18 18:19:21;;;;;;;10.45;5.00;;;14.50;52.80;;;;;;10446108;28;20306;-28
2022/12/18 18:24:24;;;;;;;10.52;5.63;;;14.60;52.80;;;;;;10442726;28;20162;-27
2022/12/18 18:29:29;;;;;;;10.15;4.88;;;14.70;52.90;;;;;;10446422;28;20059;-27
2022/12/18 18:34:32;;;;;;;14.82;7.88;;;14.70;52.90;;;;;;10440002;28;20071;-31
2022/12/18 18:39:34;;;;;;;;;;;14.50;53.20;;;;;;10442232;28;20051;-27
2022/12/18 18:44:37;;;;;;;19.17;8.05;;;14.60;53.20;;;;;;10441886;28;19968;-27
2022/12/18 18:49:39;;;;;;;11.57;6.97;;;14.50;53.30;;;;;;10449717;28;20132;-29
2022/12/18 18:54:41;;;;;;;17.73;7.28;;;14.40;53.30;;;;;;10433589;28;20053;-28
2022/12/18 18:59:46;;;;;;;16.67;7.80;;;14.40;53.40;;;;;;10445676;28;20140;-27
2022/12/18 19:04:48;;;;;;;16.95;7.70;;;14.30;53.60;;;;;;10437370;28;20071;-30
2022/12/18 19:09:52;;;;;;;15.18;7.97;;;14.20;53.40;;;;;;10439047;28;20132;-29
2022/12/18 19:14:56;;;;;;;14.07;6.82;;;14.30;53.40;;;;;;10440703;28;20067;-27
2022/12/18 19:19:58;;;;;;;16.27;8.32;;;14.20;53.60;;;;;;10444253;28;20068;-30
2022/12/18 19:25:00;;;;;;;17.27;7.75;;;14.20;53.40;;;;;;10441562;28;20065;-33
2022/12/18 19:30:03;;;;;;;18.53;6.90;;;14.30;53.60;;;;;;10439699;28;20064;-29
2022/12/18 19:35:06;;;;;;;21.38;7.60;;;14.30;53.50;;;;;;10442089;28;20055;-29
2022/12/18 19:40:08;;;;;;;14.30;7.63;;;14.20;53.70;;;;;;10442123;28;20053;-27
2022/12/18 19:45:12;;;;;;;19.80;7.47;;;14.10;53.40;;;;;;10444829;28;20045;-26
2022/12/18 19:50:14;;;;;;;13.63;7.53;;;14.10;53.50;;;;;;10439997;28;20750;-27
2022/12/18 19:55:15;;;;;;;16.95;7.95;;;14.30;53.70;;;;;;10436316;28;20059;-26
2022/12/18 20:00:19;;;;;;;17.03;7.60;;;14.20;53.70;;;;;;10444365;28;20038;-26
2022/12/18 20:05:24;;;;;;;15.05;7.85;;;15.10;55.60;;;;;;10441917;28;20123;-29
2022/12/18 20:10:25;;;;;;;18.30;8.45;;;14.70;53.80;;;;;;10436096;28;20049;-25
2022/12/18 20:15:29;;;;;;;14.00;7.78;;;14.60;53.70;;;;;;10436387;28;20089;-26
2022/12/18 20:20:31;;;;;;;16.38;8.23;;;14.50;53.80;;;;;;10441796;28;20057;-29
2022/12/18 20:25:32;;;;;;;17.03;7.00;;;14.50;53.70;;;;;;10447520;28;20421;-28
2022/12/18 20:30:36;;;;;;;15.50;7.87;;;14.50;53.60;;;;;;10456293;28;20890;-26
2022/12/18 20:35:37;;;;;;;14.35;7.45;;;14.40;53.70;;;;;;10447161;28;20350;-28
2022/12/18 20:40:40;;;;;;;16.17;8.35;;;14.40;53.70;;;;;;10441732;28;20114;-28
2022/12/18 20:45:44;;;;;;;16.67;7.85;;;14.40;53.40;;;;;;10450272;28;20049;-31
2022/12/18 20:50:46;;;;;;;19.05;8.68;;;14.40;53.50;;;;;;10448998;28;20076;-29
2022/12/18 20:55:48;;;;;;;16.13;8.63;;;14.40;53.40;;;;;;10443738;28;20049;-27
2022/12/18 21:01:01;;;;;;;24.30;9.67;;;14.40;53.40;;;;;;10451947;28;20132;-27
2022/12/18 21:06:04;;;;;;;20.33;9.73;;;14.20;53.50;;;;;;10449406;28;20156;-30
2022/12/18 21:12:29;;;;;;;;;;;14.40;53.50;;;;;;10449396;28;20473;-27
2022/12/18 21:16:36;;;;;;;26.08;10.70;;;14.40;53.40;;;;;;10441976;28;19988;-28
2022/12/18 21:21:38;;;;;;;23.33;11.77;;;14.30;53.70;;;;;;10449622;28;20099;-26
2022/12/18 21:26:45;;;;;;;23.13;10.90;;;14.40;53.40;;;;;;10442785;28;20103;-27
2022/12/18 21:31:49;;;;;;;20.33;10.32;;;14.40;53.50;;;;;;10448378;28;20053;-27
2022/12/18 21:36:51;;;;;;;15.73;7.40;;;14.50;53.40;;;;;;10447183;28;20113;-28
2022/12/18 21:47:15;;;;;;;22.65;10.82;;;14.70;53.40;;;;;;10452967;28;20080;-26
2022/12/18 21:52:17;;;;;;;17.15;8.60;;;14.70;53.40;;;;;;10446841;28;20037;-28
2022/12/18 21:57:18;;;;;;;19.73;8.57;;;14.80;53.50;;;;;;10447021;28;20064;-32
2022/12/18 22:02:22;;;;;;;20.07;9.00;;;14.70;53.60;;;;;;10442976;28;20095;-27
2022/12/18 22:07:25;;;;;;;18.52;9.25;;;14.70;53.60;;;;;;10439451;28;20087;-26
2022/12/18 22:12:36;;;;;;;18.80;9.07;;;14.80;53.60;;;;;;10441924;28;20048;-27
2022/12/18 22:17:39;;;;;;;18.38;10.27;;;14.70;53.60;;;;;;10443045;28;20063;-29
2022/12/18 22:22:41;;;;;;;15.27;7.18;;;14.70;53.60;;;;;;10450883;28;20080;-29
2022/12/18 22:30:02;;;;;;;12.90;6.73;;;14.70;53.60;;;;;;10446479;28;20045;-27
2022/12/18 22:33:06;;;;;;;15.70;8.18;;;14.70;53.60;;;;;;10446541;28;20413;-25
2022/12/18 22:38:08;;;;;;;12.07;6.55;;;14.70;53.70;;;;;;10445911;28;20084;-27
2022/12/18 22:43:10;;;;;;;19.67;9.03;;;14.70;53.80;;;;;;10443701;28;20051;-26
2022/12/18 22:48:13;;;;;;;20.53;10.20;;;14.80;53.60;;;;;;10430011;28;20165;-26
2022/12/18 22:53:15;;;;;;;21.23;11.30;;;14.80;53.60;;;;;;10440861;28;20441;-27
2022/12/18 22:58:17;;;;;;;25.97;10.07;;;14.80;54.20;;;;;;10439527;28;20135;-26
2022/12/18 23:03:20;;;;;;;19.37;9.00;;;14.80;53.60;;;;;;10447026;28;20095;-27
2022/12/18 23:08:22;;;;;;;16.27;9.15;;;14.70;53.60;;;;;;10438069;28;20080;-25
2022/12/18 23:13:24;;;;;;;14.35;7.97;;;14.60;53.90;;;;;;10438982;28;20081;-27
2022/12/18 23:18:27;;;;;;;14.70;6.70;;;14.60;53.80;;;;;;10448641;28;20048;-29
2022/12/18 23:23:29;;;;;;;15.00;7.40;;;14.60;53.90;;;;;;10441439;28;20143;-27
2022/12/18 23:28:32;;;;;;;19.05;10.10;;;14.60;53.90;;;;;;10432778;28;20045;-29
2022/12/18 23:33:35;;;;;;;16.02;8.07;;;14.60;54.00;;;;;;10437293;28;20040;-28
2022/12/18 23:38:37;;;;;;;13.63;6.63;;;14.60;53.80;;;;;;10443071;28;20052;-27
2022/12/18 23:43:39;;;;;;;12.53;6.37;;;14.60;53.90;;;;;;10450067;28;20540;-27
2022/12/18 23:48:43;;;;;;;13.77;7.60;;;14.50;53.80;;;;;;10446738;28;20056;-26
2022/12/18 23:53:45;;;;;;;13.80;7.95;;;14.60;53.90;;;;;;10438569;28;20110;-24
2022/12/18 23:58:47;;;;;;;10.40;5.68;;;14.60;53.80;;;;;;10448174;28;20065;-28
